sensor_id;sensor_type;location;lat;lon;timestamp;temperature;humidity
22645;DHT22;11489;50.834;6.752;2023-07-20T00:01:25;17.60;63.70
22645;DHT22;11489;50.834;6.752;2023-07-20T00:03:51;17.60;63.90
22645;DHT22;11489;50.834;6.752;2023-07-20T00:06:24;17.50;64.30
22645;DHT22;11489;50.834;6.752;2023-07-20T00:08:56;17.50;64.40
22645;DHT22;11489;50.834;6.752;2023-07-20T00:11:26;17.40;64.50
22645;DHT22;11489;50.834;6.752;2023-07-20T00:13:52;17.40;64.90
22645;DHT22;11489;50.834;6.752;2023-07-20T00:16:17;17.40;65.00
22645;DHT22;11489;50.834;6.752;2023-07-20T00:18:43;17.30;65.20
22645;DHT22;11489;50.834;6.752;2023-07-20T00:21:09;17.30;65.50
22645;DHT22;11489;50.834;6.752;2023-07-20T00:23:35;17.30;65.60
22645;DHT22;11489;50.834;6.752;2023-07-20T00:26:00;17.30;65.80
22645;DHT22;11489;50.834;6.752;2023-07-20T00:28:26;17.20;65.90
22645;DHT22;11489;50.834;6.752;2023-07-20T00:30:52;17.10;66.10
22645;DHT22;11489;50.834;6.752;2023-07-20T00:33:18;17.00;66.20
22645;DHT22;11489;50.834;6.752;2023-07-20T00:35:44;17.10;66.50
22645;DHT22;11489;50.834;6.752;2023-07-20T00:38:09;17.00;66.70
22645;DHT22;11489;50.834;6.752;2023-07-20T00:40:40;16.90;66.90
22645;DHT22;11489;50.834;6.752;2023-07-20T00:43:05;16.90;67.50
22645;DHT22;11489;50.834;6.752;2023-07-20T00:45:33;16.90;67.40
22645;DHT22;11489;50.834;6.752;2023-07-20T00:47:59;16.80;67.80
22645;DHT22;11489;50.834;6.752;2023-07-20T00:50:26;16.80;67.90
22645;DHT22;11489;50.834;6.752;2023-07-20T00:52:54;16.80;69.00
22645;DHT22;11489;50.834;6.752;2023-07-20T00:55:20;16.70;68.40
22645;DHT22;11489;50.834;6.752;2023-07-20T00:57:46;16.70;68.70
22645;DHT22;11489;50.834;6.752;2023-07-20T01:00:12;16.60;68.80
22645;DHT22;11489;50.834;6.752;2023-07-20T01:02:38;16.50;68.90
22645;DHT22;11489;50.834;6.752;2023-07-20T01:05:05;16.50;69.10
22645;DHT22;11489;50.834;6.752;2023-07-20T01:07:38;16.50;69.50
22645;DHT22;11489;50.834;6.752;2023-07-20T01:10:14;16.40;70.10
22645;DHT22;11489;50.834;6.752;2023-07-20T01:12:42;16.40;70.60
22645;DHT22;11489;50.834;6.752;2023-07-20T01:15:09;16.30;69.60
22645;DHT22;11489;50.834;6.752;2023-07-20T01:17:36;16.30;70.00
22645;DHT22;11489;50.834;6.752;2023-07-20T01:20:02;16.20;70.00
22645;DHT22;11489;50.834;6.752;2023-07-20T01:31:25;16.00;72.10
22645;DHT22;11489;50.834;6.752;2023-07-20T01:33:57;15.90;71.90
22645;DHT22;11489;50.834;6.752;2023-07-20T01:36:24;15.90;71.40
22645;DHT22;11489;50.834;6.752;2023-07-20T01:38:51;15.80;71.00
22645;DHT22;11489;50.834;6.752;2023-07-20T01:41:18;15.80;71.40
22645;DHT22;11489;50.834;6.752;2023-07-20T01:43:44;15.70;71.50
22645;DHT22;11489;50.834;6.752;2023-07-20T01:46:10;15.70;71.70
22645;DHT22;11489;50.834;6.752;2023-07-20T01:48:35;15.70;71.80
22645;DHT22;11489;50.834;6.752;2023-07-20T01:51:01;15.70;72.10
22645;DHT22;11489;50.834;6.752;2023-07-20T01:53:27;15.70;72.20
22645;DHT22;11489;50.834;6.752;2023-07-20T01:55:53;15.70;72.30
22645;DHT22;11489;50.834;6.752;2023-07-20T01:58:20;15.60;72.40
22645;DHT22;11489;50.834;6.752;2023-07-20T02:00:46;15.60;72.60
22645;DHT22;11489;50.834;6.752;2023-07-20T02:03:11;15.60;72.70
22645;DHT22;11489;50.834;6.752;2023-07-20T02:05:37;15.60;72.80
22645;DHT22;11489;50.834;6.752;2023-07-20T02:08:03;15.60;72.80
22645;DHT22;11489;50.834;6.752;2023-07-20T02:10:29;15.60;72.90
22645;DHT22;11489;50.834;6.752;2023-07-20T02:12:55;15.60;72.90
22645;DHT22;11489;50.834;6.752;2023-07-20T02:15:21;15.50;73.00
22645;DHT22;11489;50.834;6.752;2023-07-20T02:17:47;15.50;73.10
22645;DHT22;11489;50.834;6.752;2023-07-20T02:20:13;15.50;73.10
22645;DHT22;11489;50.834;6.752;2023-07-20T02:22:39;15.50;73.10
22645;DHT22;11489;50.834;6.752;2023-07-20T02:25:06;15.50;73.10
22645;DHT22;11489;50.834;6.752;2023-07-20T02:27:36;15.40;73.10
22645;DHT22;11489;50.834;6.752;2023-07-20T02:30:02;15.40;73.50
22645;DHT22;11489;50.834;6.752;2023-07-20T02:32:29;15.40;73.30
22645;DHT22;11489;50.834;6.752;2023-07-20T02:34:55;15.30;73.40
22645;DHT22;11489;50.834;6.752;2023-07-20T02:37:20;15.30;73.60
22645;DHT22;11489;50.834;6.752;2023-07-20T02:39:46;15.30;73.80
22645;DHT22;11489;50.834;6.752;2023-07-20T02:42:12;15.30;73.90
22645;DHT22;11489;50.834;6.752;2023-07-20T02:44:38;15.30;74.00
22645;DHT22;11489;50.834;6.752;2023-07-20T02:47:04;15.20;74.00
22645;DHT22;11489;50.834;6.752;2023-07-20T02:49:30;15.20;74.10
22645;DHT22;11489;50.834;6.752;2023-07-20T02:51:56;15.20;74.20
22645;DHT22;11489;50.834;6.752;2023-07-20T02:54:21;15.20;74.30
22645;DHT22;11489;50.834;6.752;2023-07-20T02:56:47;15.30;74.60
22645;DHT22;11489;50.834;6.752;2023-07-20T02:59:13;15.30;74.70
22645;DHT22;11489;50.834;6.752;2023-07-20T03:01:38;15.30;74.80
22645;DHT22;11489;50.834;6.752;2023-07-20T03:04:04;15.30;74.90
22645;DHT22;11489;50.834;6.752;2023-07-20T03:06:30;15.30;74.80
22645;DHT22;11489;50.834;6.752;2023-07-20T03:08:56;15.30;74.80
22645;DHT22;11489;50.834;6.752;2023-07-20T03:11:22;15.30;74.90
22645;DHT22;11489;50.834;6.752;2023-07-20T03:13:48;15.30;75.00
22645;DHT22;11489;50.834;6.752;2023-07-20T03:16:18;15.30;75.10
22645;DHT22;11489;50.834;6.752;2023-07-20T03:18:44;15.30;75.20
22645;DHT22;11489;50.834;6.752;2023-07-20T03:21:11;15.40;75.20
22645;DHT22;11489;50.834;6.752;2023-07-20T03:23:37;15.40;75.40
22645;DHT22;11489;50.834;6.752;2023-07-20T03:26:03;15.40;75.50
22645;DHT22;11489;50.834;6.752;2023-07-20T03:28:29;15.50;75.60
22645;DHT22;11489;50.834;6.752;2023-07-20T03:30:56;15.50;75.50
22645;DHT22;11489;50.834;6.752;2023-07-20T03:33:26;15.50;75.50
22645;DHT22;11489;50.834;6.752;2023-07-20T03:35:53;15.60;75.80
22645;DHT22;11489;50.834;6.752;2023-07-20T03:38:20;15.60;75.30
22645;DHT22;11489;50.834;6.752;2023-07-20T03:40:56;15.60;75.20
22645;DHT22;11489;50.834;6.752;2023-07-20T03:43:23;15.60;75.50
22645;DHT22;11489;50.834;6.752;2023-07-20T03:45:49;15.70;75.10
22645;DHT22;11489;50.834;6.752;2023-07-20T03:48:16;15.70;75.00
22645;DHT22;11489;50.834;6.752;2023-07-20T03:50:43;15.70;75.00
22645;DHT22;11489;50.834;6.752;2023-07-20T03:53:09;15.70;75.00
22645;DHT22;11489;50.834;6.752;2023-07-20T03:55:34;15.70;75.00
22645;DHT22;11489;50.834;6.752;2023-07-20T03:58:01;15.70;74.90
22645;DHT22;11489;50.834;6.752;2023-07-20T04:00:27;15.70;74.90
22645;DHT22;11489;50.834;6.752;2023-07-20T04:02:53;15.70;74.80
22645;DHT22;11489;50.834;6.752;2023-07-20T04:05:19;15.70;74.70
22645;DHT22;11489;50.834;6.752;2023-07-20T04:07:44;15.80;74.80
22645;DHT22;11489;50.834;6.752;2023-07-20T04:10:10;15.80;74.70
22645;DHT22;11489;50.834;6.752;2023-07-20T04:12:36;15.70;74.70
22645;DHT22;11489;50.834;6.752;2023-07-20T04:15:02;15.70;74.80
22645;DHT22;11489;50.834;6.752;2023-07-20T04:17:29;15.70;74.80
22645;DHT22;11489;50.834;6.752;2023-07-20T04:19:55;15.80;74.80
22645;DHT22;11489;50.834;6.752;2023-07-20T04:22:21;15.80;75.00
22645;DHT22;11489;50.834;6.752;2023-07-20T04:24:47;15.80;75.10
22645;DHT22;11489;50.834;6.752;2023-07-20T04:27:12;15.80;75.20
22645;DHT22;11489;50.834;6.752;2023-07-20T04:29:38;15.90;75.20
22645;DHT22;11489;50.834;6.752;2023-07-20T04:32:04;15.90;75.10
22645;DHT22;11489;50.834;6.752;2023-07-20T04:34:30;15.90;75.10
22645;DHT22;11489;50.834;6.752;2023-07-20T04:36:56;16.00;75.10
22645;DHT22;11489;50.834;6.752;2023-07-20T04:39:21;16.00;75.10
22645;DHT22;11489;50.834;6.752;2023-07-20T04:41:47;16.00;75.00
22645;DHT22;11489;50.834;6.752;2023-07-20T04:44:13;16.00;75.00
22645;DHT22;11489;50.834;6.752;2023-07-20T04:46:39;16.10;75.10
22645;DHT22;11489;50.834;6.752;2023-07-20T04:49:06;16.10;75.10
22645;DHT22;11489;50.834;6.752;2023-07-20T04:51:31;16.10;75.10
22645;DHT22;11489;50.834;6.752;2023-07-20T04:53:57;16.20;75.10
22645;DHT22;11489;50.834;6.752;2023-07-20T04:56:24;16.20;75.10
22645;DHT22;11489;50.834;6.752;2023-07-20T04:58:50;16.20;75.10
22645;DHT22;11489;50.834;6.752;2023-07-20T05:01:16;16.30;75.00
22645;DHT22;11489;50.834;6.752;2023-07-20T05:03:41;16.30;75.00
22645;DHT22;11489;50.834;6.752;2023-07-20T05:06:07;16.40;75.10
22645;DHT22;11489;50.834;6.752;2023-07-20T05:08:33;16.40;75.10
22645;DHT22;11489;50.834;6.752;2023-07-20T05:11:02;16.50;75.10
22645;DHT22;11489;50.834;6.752;2023-07-20T05:13:27;16.50;75.20
22645;DHT22;11489;50.834;6.752;2023-07-20T05:15:53;16.60;75.10
22645;DHT22;11489;50.834;6.752;2023-07-20T05:18:19;16.70;75.20
22645;DHT22;11489;50.834;6.752;2023-07-20T05:20:49;16.70;75.20
22645;DHT22;11489;50.834;6.752;2023-07-20T05:23:19;16.80;75.40
22645;DHT22;11489;50.834;6.752;2023-07-20T05:26:00;16.90;75.40
22645;DHT22;11489;50.834;6.752;2023-07-20T05:28:26;17.00;75.40
22645;DHT22;11489;50.834;6.752;2023-07-20T05:30:54;17.10;75.10
22645;DHT22;11489;50.834;6.752;2023-07-20T05:33:21;17.30;75.10
22645;DHT22;11489;50.834;6.752;2023-07-20T05:35:47;17.30;74.90
22645;DHT22;11489;50.834;6.752;2023-07-20T05:38:13;17.40;74.70
22645;DHT22;11489;50.834;6.752;2023-07-20T05:40:40;17.50;74.40
22645;DHT22;11489;50.834;6.752;2023-07-20T05:43:07;17.60;74.20
22645;DHT22;11489;50.834;6.752;2023-07-20T05:45:33;17.60;73.90
22645;DHT22;11489;50.834;6.752;2023-07-20T05:47:58;17.60;73.60
22645;DHT22;11489;50.834;6.752;2023-07-20T05:50:24;17.70;73.50
22645;DHT22;11489;50.834;6.752;2023-07-20T05:52:52;17.70;73.40
22645;DHT22;11489;50.834;6.752;2023-07-20T05:55:18;17.70;73.20
22645;DHT22;11489;50.834;6.752;2023-07-20T05:57:44;17.70;73.20
22645;DHT22;11489;50.834;6.752;2023-07-20T06:00:10;17.60;73.10
22645;DHT22;11489;50.834;6.752;2023-07-20T06:02:36;17.60;73.40
22645;DHT22;11489;50.834;6.752;2023-07-20T06:05:01;17.60;73.60
22645;DHT22;11489;50.834;6.752;2023-07-20T06:07:30;17.60;73.70
22645;DHT22;11489;50.834;6.752;2023-07-20T06:09:56;17.70;73.50
22645;DHT22;11489;50.834;6.752;2023-07-20T06:12:23;17.60;73.30
22645;DHT22;11489;50.834;6.752;2023-07-20T06:14:49;17.60;73.30
22645;DHT22;11489;50.834;6.752;2023-07-20T06:17:15;17.60;73.30
22645;DHT22;11489;50.834;6.752;2023-07-20T06:19:40;17.70;73.60
22645;DHT22;11489;50.834;6.752;2023-07-20T06:22:06;17.70;74.00
22645;DHT22;11489;50.834;6.752;2023-07-20T06:24:32;17.80;74.20
22645;DHT22;11489;50.834;6.752;2023-07-20T06:26:57;17.90;74.30
22645;DHT22;11489;50.834;6.752;2023-07-20T06:29:23;18.00;74.20
22645;DHT22;11489;50.834;6.752;2023-07-20T06:31:49;18.10;74.10
22645;DHT22;11489;50.834;6.752;2023-07-20T06:34:14;18.20;73.90
22645;DHT22;11489;50.834;6.752;2023-07-20T06:36:40;18.40;73.80
22645;DHT22;11489;50.834;6.752;2023-07-20T06:39:06;18.50;73.50
22645;DHT22;11489;50.834;6.752;2023-07-20T06:41:31;18.60;73.30
22645;DHT22;11489;50.834;6.752;2023-07-20T06:43:57;18.70;72.80
22645;DHT22;11489;50.834;6.752;2023-07-20T06:46:25;18.80;72.50
22645;DHT22;11489;50.834;6.752;2023-07-20T06:48:51;18.90;72.20
22645;DHT22;11489;50.834;6.752;2023-07-20T06:51:17;19.00;72.30
22645;DHT22;11489;50.834;6.752;2023-07-20T06:53:43;19.00;72.10
22645;DHT22;11489;50.834;6.752;2023-07-20T06:56:09;19.10;71.80
22645;DHT22;11489;50.834;6.752;2023-07-20T06:58:34;19.10;71.40
22645;DHT22;11489;50.834;6.752;2023-07-20T07:01:05;19.20;71.10
22645;DHT22;11489;50.834;6.752;2023-07-20T07:03:32;19.20;71.10
22645;DHT22;11489;50.834;6.752;2023-07-20T07:05:57;19.30;71.20
22645;DHT22;11489;50.834;6.752;2023-07-20T07:08:23;19.30;70.90
22645;DHT22;11489;50.834;6.752;2023-07-20T07:10:49;19.40;70.60
22645;DHT22;11489;50.834;6.752;2023-07-20T07:13:14;19.40;70.60
22645;DHT22;11489;50.834;6.752;2023-07-20T07:15:40;19.40;70.40
22645;DHT22;11489;50.834;6.752;2023-07-20T07:18:05;19.50;70.60
22645;DHT22;11489;50.834;6.752;2023-07-20T07:20:31;19.50;70.50
22645;DHT22;11489;50.834;6.752;2023-07-20T07:22:57;19.50;70.30
22645;DHT22;11489;50.834;6.752;2023-07-20T07:25:23;19.60;70.20
22645;DHT22;11489;50.834;6.752;2023-07-20T07:27:48;19.70;70.00
22645;DHT22;11489;50.834;6.752;2023-07-20T07:30:14;19.70;69.50
22645;DHT22;11489;50.834;6.752;2023-07-20T07:32:40;19.70;69.20
22645;DHT22;11489;50.834;6.752;2023-07-20T07:35:07;19.70;69.10
22645;DHT22;11489;50.834;6.752;2023-07-20T07:37:32;19.80;68.60
22645;DHT22;11489;50.834;6.752;2023-07-20T07:39:58;19.80;68.50
22645;DHT22;11489;50.834;6.752;2023-07-20T07:42:23;19.80;68.70
22645;DHT22;11489;50.834;6.752;2023-07-20T07:44:49;19.80;68.50
22645;DHT22;11489;50.834;6.752;2023-07-20T07:47:15;19.90;68.10
22645;DHT22;11489;50.834;6.752;2023-07-20T07:49:41;19.90;68.00
22645;DHT22;11489;50.834;6.752;2023-07-20T07:52:07;20.00;68.00
22645;DHT22;11489;50.834;6.752;2023-07-20T07:54:33;20.10;68.10
22645;DHT22;11489;50.834;6.752;2023-07-20T07:56:58;20.20;68.20
22645;DHT22;11489;50.834;6.752;2023-07-20T07:59:24;20.40;67.90
22645;DHT22;11489;50.834;6.752;2023-07-20T08:01:49;20.60;67.80
22645;DHT22;11489;50.834;6.752;2023-07-20T08:04:15;20.70;67.40
22645;DHT22;11489;50.834;6.752;2023-07-20T08:06:41;20.90;67.00
22645;DHT22;11489;50.834;6.752;2023-07-20T08:09:06;21.00;66.70
22645;DHT22;11489;50.834;6.752;2023-07-20T08:11:32;21.10;66.20
22645;DHT22;11489;50.834;6.752;2023-07-20T08:14:02;21.20;65.60
22645;DHT22;11489;50.834;6.752;2023-07-20T08:16:28;21.30;64.80
22645;DHT22;11489;50.834;6.752;2023-07-20T08:18:54;21.30;64.80
22645;DHT22;11489;50.834;6.752;2023-07-20T08:21:19;21.40;65.20
22645;DHT22;11489;50.834;6.752;2023-07-20T08:23:45;21.50;65.20
22645;DHT22;11489;50.834;6.752;2023-07-20T08:26:11;21.70;64.70
22645;DHT22;11489;50.834;6.752;2023-07-20T08:28:37;21.80;64.10
22645;DHT22;11489;50.834;6.752;2023-07-20T08:31:05;21.90;63.50
22645;DHT22;11489;50.834;6.752;2023-07-20T08:33:31;22.00;63.00
22645;DHT22;11489;50.834;6.752;2023-07-20T08:35:59;22.10;63.30
22645;DHT22;11489;50.834;6.752;2023-07-20T08:38:26;22.20;62.90
22645;DHT22;11489;50.834;6.752;2023-07-20T08:40:52;22.30;62.40
22645;DHT22;11489;50.834;6.752;2023-07-20T08:43:22;22.50;62.10
22645;DHT22;11489;50.834;6.752;2023-07-20T08:45:50;22.50;61.40
22645;DHT22;11489;50.834;6.752;2023-07-20T08:48:18;22.70;60.90
22645;DHT22;11489;50.834;6.752;2023-07-20T08:50:45;22.80;60.80
22645;DHT22;11489;50.834;6.752;2023-07-20T08:53:12;23.10;61.00
22645;DHT22;11489;50.834;6.752;2023-07-20T08:55:39;23.30;60.80
22645;DHT22;11489;50.834;6.752;2023-07-20T08:58:08;23.60;60.20
22645;DHT22;11489;50.834;6.752;2023-07-20T09:00:34;23.80;59.10
22645;DHT22;11489;50.834;6.752;2023-07-20T09:03:02;23.90;58.60
22645;DHT22;11489;50.834;6.752;2023-07-20T09:05:29;24.00;58.30
22645;DHT22;11489;50.834;6.752;2023-07-20T09:07:55;24.10;58.20
22645;DHT22;11489;50.834;6.752;2023-07-20T09:10:24;24.20;57.50
22645;DHT22;11489;50.834;6.752;2023-07-20T09:12:50;24.20;57.00
22645;DHT22;11489;50.834;6.752;2023-07-20T09:15:16;24.10;56.60
22645;DHT22;11489;50.834;6.752;2023-07-20T09:17:46;24.00;56.40
22645;DHT22;11489;50.834;6.752;2023-07-20T09:20:15;23.80;55.80
22645;DHT22;11489;50.834;6.752;2023-07-20T09:22:41;23.70;56.20
22645;DHT22;11489;50.834;6.752;2023-07-20T09:25:18;23.50;56.90
22645;DHT22;11489;50.834;6.752;2023-07-20T09:27:48;23.60;56.90
22645;DHT22;11489;50.834;6.752;2023-07-20T09:30:15;23.70;57.50
22645;DHT22;11489;50.834;6.752;2023-07-20T09:35:15;24.20;56.80
22645;DHT22;11489;50.834;6.752;2023-07-20T09:37:54;24.30;55.60
22645;DHT22;11489;50.834;6.752;2023-07-20T09:40:20;24.50;55.20
22645;DHT22;11489;50.834;6.752;2023-07-20T09:42:47;24.70;56.00
22645;DHT22;11489;50.834;6.752;2023-07-20T09:45:13;24.90;55.80
22645;DHT22;11489;50.834;6.752;2023-07-20T09:47:39;25.20;55.40
22645;DHT22;11489;50.834;6.752;2023-07-20T09:50:07;25.30;54.40
22645;DHT22;11489;50.834;6.752;2023-07-20T09:52:38;25.50;54.00
22645;DHT22;11489;50.834;6.752;2023-07-20T09:55:07;25.60;53.70
22645;DHT22;11489;50.834;6.752;2023-07-20T09:57:33;25.60;52.80
22645;DHT22;11489;50.834;6.752;2023-07-20T10:00:00;25.60;52.60
22645;DHT22;11489;50.834;6.752;2023-07-20T10:02:32;25.60;52.70
22645;DHT22;11489;50.834;6.752;2023-07-20T10:05:02;25.70;52.20
22645;DHT22;11489;50.834;6.752;2023-07-20T10:07:30;25.80;52.20
22645;DHT22;11489;50.834;6.752;2023-07-20T10:09:56;25.90;51.20
22645;DHT22;11489;50.834;6.752;2023-07-20T10:12:25;25.80;51.10
22645;DHT22;11489;50.834;6.752;2023-07-20T10:15:13;25.80;51.20
22645;DHT22;11489;50.834;6.752;2023-07-20T10:17:49;25.80;50.10
22645;DHT22;11489;50.834;6.752;2023-07-20T10:20:19;25.90;50.70
22645;DHT22;11489;50.834;6.752;2023-07-20T10:22:48;26.00;51.40
22645;DHT22;11489;50.834;6.752;2023-07-20T10:25:16;26.10;50.50
22645;DHT22;11489;50.834;6.752;2023-07-20T10:27:42;26.10;49.70
22645;DHT22;11489;50.834;6.752;2023-07-20T10:30:08;26.00;50.00
22645;DHT22;11489;50.834;6.752;2023-07-20T10:32:34;26.00;49.50
22645;DHT22;11489;50.834;6.752;2023-07-20T10:34:59;25.90;49.40
22645;DHT22;11489;50.834;6.752;2023-07-20T10:37:51;25.80;49.10
22645;DHT22;11489;50.834;6.752;2023-07-20T10:42:58;25.40;48.00
22645;DHT22;11489;50.834;6.752;2023-07-20T10:45:34;25.10;48.70
22645;DHT22;11489;50.834;6.752;2023-07-20T10:48:03;25.00;49.00
22645;DHT22;11489;50.834;6.752;2023-07-20T10:50:30;24.90;49.30
22645;DHT22;11489;50.834;6.752;2023-07-20T10:53:12;24.90;49.60
22645;DHT22;11489;50.834;6.752;2023-07-20T10:55:39;24.90;49.40
22645;DHT22;11489;50.834;6.752;2023-07-20T10:58:12;25.00;50.20
22645;DHT22;11489;50.834;6.752;2023-07-20T11:01:00;25.10;49.40
22645;DHT22;11489;50.834;6.752;2023-07-20T11:03:30;25.20;48.70
22645;DHT22;11489;50.834;6.752;2023-07-20T11:05:57;25.30;49.30
22645;DHT22;11489;50.834;6.752;2023-07-20T11:08:42;25.30;49.00
22645;DHT22;11489;50.834;6.752;2023-07-20T11:11:29;25.40;48.20
22645;DHT22;11489;50.834;6.752;2023-07-20T11:16:39;25.80;48.80
22645;DHT22;11489;50.834;6.752;2023-07-20T11:19:13;25.90;48.70
22645;DHT22;11489;50.834;6.752;2023-07-20T11:21:41;26.00;48.10
22645;DHT22;11489;50.834;6.752;2023-07-20T11:24:07;26.00;47.80
22645;DHT22;11489;50.834;6.752;2023-07-20T11:26:53;26.10;47.70
22645;DHT22;11489;50.834;6.752;2023-07-20T11:29:21;26.00;46.40
22645;DHT22;11489;50.834;6.752;2023-07-20T11:31:49;26.00;46.90
22645;DHT22;11489;50.834;6.752;2023-07-20T11:34:15;25.90;46.90
22645;DHT22;11489;50.834;6.752;2023-07-20T11:36:43;25.80;46.40
22645;DHT22;11489;50.834;6.752;2023-07-20T11:39:10;25.60;46.60
22645;DHT22;11489;50.834;6.752;2023-07-20T11:41:36;25.60;46.70
22645;DHT22;11489;50.834;6.752;2023-07-20T11:44:02;25.60;46.60
22645;DHT22;11489;50.834;6.752;2023-07-20T11:46:28;25.50;46.50
22645;DHT22;11489;50.834;6.752;2023-07-20T11:49:01;25.60;46.70
22645;DHT22;11489;50.834;6.752;2023-07-20T11:51:30;25.70;46.20
22645;DHT22;11489;50.834;6.752;2023-07-20T11:53:57;25.70;46.30
22645;DHT22;11489;50.834;6.752;2023-07-20T11:56:24;25.80;46.50
22645;DHT22;11489;50.834;6.752;2023-07-20T11:58:50;25.80;45.90
22645;DHT22;11489;50.834;6.752;2023-07-20T12:01:17;25.90;46.00
22645;DHT22;11489;50.834;6.752;2023-07-20T12:03:43;25.90;46.10
22645;DHT22;11489;50.834;6.752;2023-07-20T12:06:10;26.00;46.40
22645;DHT22;11489;50.834;6.752;2023-07-20T12:08:38;26.20;46.30
22645;DHT22;11489;50.834;6.752;2023-07-20T12:11:05;26.40;46.30
22645;DHT22;11489;50.834;6.752;2023-07-20T12:13:37;26.60;46.20
22645;DHT22;11489;50.834;6.752;2023-07-20T12:16:16;26.70;45.30
22645;DHT22;11489;50.834;6.752;2023-07-20T12:18:45;26.90;44.60
22645;DHT22;11489;50.834;6.752;2023-07-20T12:21:11;27.00;45.20
22645;DHT22;11489;50.834;6.752;2023-07-20T12:23:41;27.20;45.30
22645;DHT22;11489;50.834;6.752;2023-07-20T12:26:07;27.40;44.50
22645;DHT22;11489;50.834;6.752;2023-07-20T12:28:39;27.50;44.50
22645;DHT22;11489;50.834;6.752;2023-07-20T12:31:07;27.60;43.90
22645;DHT22;11489;50.834;6.752;2023-07-20T12:33:33;27.60;44.20
22645;DHT22;11489;50.834;6.752;2023-07-20T12:35:59;27.70;44.10
22645;DHT22;11489;50.834;6.752;2023-07-20T12:38:25;27.90;43.70
22645;DHT22;11489;50.834;6.752;2023-07-20T12:40:53;28.00;43.30
22645;DHT22;11489;50.834;6.752;2023-07-20T12:43:21;28.10;42.90
22645;DHT22;11489;50.834;6.752;2023-07-20T12:45:47;28.00;42.10
22645;DHT22;11489;50.834;6.752;2023-07-20T12:48:12;27.90;42.30
22645;DHT22;11489;50.834;6.752;2023-07-20T12:50:38;27.80;41.70
22645;DHT22;11489;50.834;6.752;2023-07-20T12:53:04;27.60;41.50
22645;DHT22;11489;50.834;6.752;2023-07-20T12:55:29;27.30;41.00
22645;DHT22;11489;50.834;6.752;2023-07-20T12:57:55;27.00;41.00
22645;DHT22;11489;50.834;6.752;2023-07-20T13:00:21;26.70;41.40
22645;DHT22;11489;50.834;6.752;2023-07-20T13:02:50;26.40;41.70
22645;DHT22;11489;50.834;6.752;2023-07-20T13:05:16;26.10;41.80
22645;DHT22;11489;50.834;6.752;2023-07-20T13:07:42;25.90;42.10
22645;DHT22;11489;50.834;6.752;2023-07-20T13:10:09;25.70;42.20
22645;DHT22;11489;50.834;6.752;2023-07-20T13:12:36;25.50;42.30
22645;DHT22;11489;50.834;6.752;2023-07-20T13:15:03;25.30;42.50
22645;DHT22;11489;50.834;6.752;2023-07-20T13:17:31;25.10;42.60
22645;DHT22;11489;50.834;6.752;2023-07-20T13:19:58;25.00;42.90
22645;DHT22;11489;50.834;6.752;2023-07-20T13:22:23;24.80;43.50
22645;DHT22;11489;50.834;6.752;2023-07-20T13:24:49;24.70;43.10
22645;DHT22;11489;50.834;6.752;2023-07-20T13:27:19;24.70;43.50
22645;DHT22;11489;50.834;6.752;2023-07-20T13:29:45;24.70;43.60
22645;DHT22;11489;50.834;6.752;2023-07-20T13:32:13;24.70;43.80
22645;DHT22;11489;50.834;6.752;2023-07-20T13:34:40;24.70;43.90
22645;DHT22;11489;50.834;6.752;2023-07-20T13:37:06;24.70;43.70
22645;DHT22;11489;50.834;6.752;2023-07-20T13:39:32;24.70;43.70
22645;DHT22;11489;50.834;6.752;2023-07-20T13:41:57;24.70;43.80
22645;DHT22;11489;50.834;6.752;2023-07-20T13:44:23;24.70;43.70
22645;DHT22;11489;50.834;6.752;2023-07-20T13:46:49;24.70;43.80
22645;DHT22;11489;50.834;6.752;2023-07-20T13:49:15;24.80;43.80
22645;DHT22;11489;50.834;6.752;2023-07-20T13:51:41;25.00;43.90
22645;DHT22;11489;50.834;6.752;2023-07-20T13:54:08;25.10;43.70
22645;DHT22;11489;50.834;6.752;2023-07-20T13:56:34;25.20;43.50
22645;DHT22;11489;50.834;6.752;2023-07-20T13:59:00;25.40;43.40
22645;DHT22;11489;50.834;6.752;2023-07-20T14:01:26;25.50;43.00
22645;DHT22;11489;50.834;6.752;2023-07-20T14:03:53;25.50;42.60
22645;DHT22;11489;50.834;6.752;2023-07-20T14:06:19;25.60;42.60
22645;DHT22;11489;50.834;6.752;2023-07-20T14:08:45;25.70;42.80
22645;DHT22;11489;50.834;6.752;2023-07-20T14:11:12;25.80;42.70
22645;DHT22;11489;50.834;6.752;2023-07-20T14:13:38;26.00;42.70
22645;DHT22;11489;50.834;6.752;2023-07-20T14:16:05;26.20;42.60
22645;DHT22;11489;50.834;6.752;2023-07-20T14:18:30;26.40;42.20
22645;DHT22;11489;50.834;6.752;2023-07-20T14:20:56;26.60;42.20
22645;DHT22;11489;50.834;6.752;2023-07-20T14:23:22;26.80;41.90
22645;DHT22;11489;50.834;6.752;2023-07-20T14:25:48;27.10;41.90
22645;DHT22;11489;50.834;6.752;2023-07-20T14:28:14;27.50;40.70
22645;DHT22;11489;50.834;6.752;2023-07-20T14:30:40;27.60;40.10
22645;DHT22;11489;50.834;6.752;2023-07-20T14:33:06;27.70;40.00
22645;DHT22;11489;50.834;6.752;2023-07-20T14:35:32;27.90;39.50
22645;DHT22;11489;50.834;6.752;2023-07-20T14:38:00;27.90;38.90
22645;DHT22;11489;50.834;6.752;2023-07-20T14:40:26;27.80;38.50
22645;DHT22;11489;50.834;6.752;2023-07-20T14:42:51;27.70;38.20
22645;DHT22;11489;50.834;6.752;2023-07-20T14:45:32;27.70;38.90
22645;DHT22;11489;50.834;6.752;2023-07-20T14:48:29;27.80;38.30
22645;DHT22;11489;50.834;6.752;2023-07-20T14:51:21;28.00;38.40
22645;DHT22;11489;50.834;6.752;2023-07-20T14:53:56;28.10;38.80
22645;DHT22;11489;50.834;6.752;2023-07-20T14:56:49;28.20;38.40
22645;DHT22;11489;50.834;6.752;2023-07-20T14:59:25;28.30;37.40
22645;DHT22;11489;50.834;6.752;2023-07-20T15:01:53;28.30;37.40
22645;DHT22;11489;50.834;6.752;2023-07-20T15:04:25;28.20;37.70
22645;DHT22;11489;50.834;6.752;2023-07-20T15:11:08;27.90;36.60
22645;DHT22;11489;50.834;6.752;2023-07-20T15:13:54;27.80;36.50
22645;DHT22;11489;50.834;6.752;2023-07-20T15:16:29;27.70;36.90
22645;DHT22;11489;50.834;6.752;2023-07-20T15:19:00;27.60;36.50
22645;DHT22;11489;50.834;6.752;2023-07-20T15:22:08;27.40;36.80
22645;DHT22;11489;50.834;6.752;2023-07-20T15:24:37;27.30;36.50
22645;DHT22;11489;50.834;6.752;2023-07-20T15:27:27;27.20;36.90
22645;DHT22;11489;50.834;6.752;2023-07-20T15:30:21;27.00;37.10
22645;DHT22;11489;50.834;6.752;2023-07-20T15:33:10;27.10;36.80
22645;DHT22;11489;50.834;6.752;2023-07-20T15:35:36;27.10;36.60
22645;DHT22;11489;50.834;6.752;2023-07-20T15:38:02;27.10;37.00
22645;DHT22;11489;50.834;6.752;2023-07-20T15:40:49;27.20;37.20
22645;DHT22;11489;50.834;6.752;2023-07-20T15:43:21;27.30;36.50
22645;DHT22;11489;50.834;6.752;2023-07-20T15:45:47;27.30;36.50
22645;DHT22;11489;50.834;6.752;2023-07-20T15:48:18;27.20;36.60
22645;DHT22;11489;50.834;6.752;2023-07-20T15:50:46;27.10;36.30
22645;DHT22;11489;50.834;6.752;2023-07-20T15:53:14;27.00;36.30
22645;DHT22;11489;50.834;6.752;2023-07-20T15:55:40;26.90;36.60